Time;durP1;ratioP1;P1;durP2;ratioP2;P2;SDS_P1;SDS_P2;PMS_P1;PMS_P2;Temp;Humidity;BMP_temperature;BMP_pressure;BME280_temperature;BME280_humidity;BME280_pressure;Samples;Min_cycle;Max_cycle;Signal;HPM_P1;HPM_P2
2021/05/02 00:01:34;;;;;;;27.52;23.77;;;8.70;99.90;;;;;;5049970;28;20211;-83
2021/05/02 00:04:02;;;;;;;32.17;23.42;;;8.60;99.90;;;;;;5051599;28;20239;-83
2021/05/02 00:06:29;;;;;;;32.72;24.38;;;8.60;99.90;;;;;;5051602;28;20212;-83
2021/05/02 00:08:56;;;;;;;29.45;23.65;;;8.50;99.90;;;;;;5048534;28;20184;-83
2021/05/02 00:11:24;;;;;;;27.25;23.25;;;8.50;99.90;;;;;;5050088;28;20219;-81
2021/05/02 00:13:51;;;;;;;23.83;19.70;;;8.50;99.90;;;;;;5053751;28;20286;-82
2021/05/02 00:16:18;;;;;;;23.65;20.02;;;8.50;99.90;;;;;;5057319;28;20355;-83
2021/05/02 00:18:47;;;;;;;25.65;20.67;;;8.40;99.90;;;;;;5052107;28;20205;-83
2021/05/02 00:21:14;;;;;;;23.00;20.50;;;8.40;99.90;;;;;;5043312;28;20223;-83
2021/05/02 00:23:42;;;;;;;23.67;19.45;;;8.40;99.90;;;;;;5052897;28;20230;-83
2021/05/02 00:26:10;;;;;;;19.33;17.20;;;8.40;99.90;;;;;;5052709;28;20206;-83
2021/05/02 00:28:44;;;;;;;20.80;18.60;;;8.40;99.90;;;;;;5051868;28;20228;-82
2021/05/02 00:31:10;;;;;;;21.30;19.00;;;8.40;99.90;;;;;;5051968;28;20234;-83
2021/05/02 00:33:37;;;;;;;22.38;20.05;;;8.30;99.90;;;;;;5045023;28;20223;-83
2021/05/02 00:36:04;;;;;;;23.35;18.83;;;8.40;99.90;;;;;;5051822;28;20203;-83
2021/05/02 00:38:34;;;;;;;23.65;19.73;;;8.40;99.90;;;;;;5053324;28;20230;-82
2021/05/02 00:41:07;;;;;;;21.73;19.42;;;8.40;99.90;;;;;;5051887;28;20206;-83
2021/05/02 00:43:44;;;;;;;23.55;21.10;;;8.40;99.90;;;;;;5053188;28;20234;-82
2021/05/02 00:46:17;;;;;;;21.30;18.48;;;8.40;99.90;;;;;;5048547;28;20205;-83
2021/05/02 00:48:53;;;;;;;23.13;19.48;;;8.40;99.90;;;;;;5036550;28;20196;-83
2021/05/02 00:51:22;;;;;;;25.02;20.02;;;8.40;99.90;;;;;;5052434;28;20215;-83
2021/05/02 00:54:10;;;;;;;26.13;21.80;;;8.40;99.90;;;;;;5053759;28;20294;-82
2021/05/02 00:56:46;;;;;;;24.02;21.42;;;8.40;99.90;;;;;;5052211;28;20207;-83
2021/05/02 00:59:22;;;;;;;25.10;20.95;;;8.30;99.90;;;;;;5053536;28;20214;-83
2021/05/02 01:01:52;;;;;;;29.55;24.00;;;8.30;99.90;;;;;;5053564;28;20271;-83
2021/05/02 01:04:22;;;;;;;27.40;23.73;;;8.20;99.90;;;;;;5045804;28;20214;-83
2021/05/02 01:06:49;;;;;;;30.65;23.15;;;8.20;99.90;;;;;;5048153;28;20233;-83
2021/05/02 01:09:18;;;;;;;25.35;22.75;;;8.10;99.90;;;;;;5053997;28;20237;-82
2021/05/02 01:11:48;;;;;;;24.55;21.63;;;8.10;99.90;;;;;;5054390;28;20245;-83
2021/05/02 01:14:22;;;;;;;24.30;21.73;;;8.10;99.90;;;;;;5047138;28;20219;-81
2021/05/02 01:16:54;;;;;;;27.08;21.40;;;8.00;99.90;;;;;;5048802;28;20207;-83
2021/05/02 01:19:21;;;;;;;26.90;21.67;;;8.10;99.90;;;;;;5035354;28;20203;-83
2021/05/02 01:21:50;;;;;;;23.25;19.70;;;8.00;99.90;;;;;;5045857;28;20211;-83
2021/05/02 01:24:19;;;;;;;22.83;20.20;;;8.00;99.90;;;;;;5052596;28;20220;-83
2021/05/02 01:26:47;;;;;;;23.88;19.50;;;8.00;99.90;;;;;;5052045;28;20201;-83
2021/05/02 01:29:15;;;;;;;22.13;19.52;;;8.00;99.90;;;;;;5055318;28;20208;-82
2021/05/02 01:31:43;;;;;;;22.85;20.45;;;7.90;99.90;;;;;;5056353;28;20207;-82
2021/05/02 01:34:11;;;;;;;20.65;18.45;;;7.80;99.90;;;;;;5051022;28;20225;-83
2021/05/02 01:36:37;;;;;;;24.85;19.77;;;7.80;99.90;;;;;;5051968;28;20209;-82
2021/05/02 01:39:07;;;;;;;20.10;17.95;;;7.70;99.90;;;;;;5051000;28;20201;-82
2021/05/02 01:41:35;;;;;;;23.20;17.92;;;7.70;99.90;;;;;;5040461;28;20206;-83
2021/05/02 01:44:02;;;;;;;21.83;19.10;;;7.70;99.90;;;;;;5049982;28;20224;-82
2021/05/02 01:46:32;;;;;;;20.75;18.45;;;7.60;99.90;;;;;;5043947;28;20202;-82
2021/05/02 01:49:00;;;;;;;21.27;18.60;;;7.60;99.90;;;;;;5048856;28;20236;-82
2021/05/02 01:51:30;;;;;;;22.75;18.05;;;7.50;99.90;;;;;;5043950;28;20215;-82
2021/05/02 01:53:59;;;;;;;24.30;19.15;;;7.50;99.90;;;;;;5045193;28;20252;-82
2021/05/02 01:56:57;;;;;;;24.50;18.17;;;7.50;99.90;;;;;;5054909;28;20264;-83
2021/05/02 01:59:25;;;;;;;21.08;18.75;;;7.40;99.90;;;;;;5045072;28;20213;-83
2021/05/02 02:01:52;;;;;;;22.15;18.33;;;7.40;99.90;;;;;;5052421;28;20197;-84
2021/05/02 02:04:21;;;;;;;19.30;16.83;;;7.40;99.90;;;;;;5046024;28;20229;-84
2021/05/02 02:06:49;;;;;;;22.70;18.42;;;7.40;99.90;;;;;;5045373;28;20219;-83
2021/05/02 02:09:15;;;;;;;18.58;15.90;;;7.40;99.90;;;;;;5048492;28;20208;-84
2021/05/02 02:11:42;;;;;;;23.63;18.15;;;7.40;99.90;;;;;;5049308;28;20675;-83
2021/05/02 02:14:10;;;;;;;20.65;18.45;;;7.40;99.90;;;;;;5049799;28;20220;-82
2021/05/02 02:16:40;;;;;;;21.13;18.83;;;7.40;99.90;;;;;;5047122;28;20202;-83
2021/05/02 02:19:07;;;;;;;22.60;18.85;;;7.40;99.90;;;;;;5042936;28;20200;-84
2021/05/02 02:21:33;;;;;;;20.60;18.40;;;7.20;99.90;;;;;;5050000;28;20250;-83
2021/05/02 02:24:01;;;;;;;21.17;18.75;;;7.30;99.90;;;;;;5050292;28;20226;-83
2021/05/02 02:26:31;;;;;;;19.85;17.58;;;7.30;99.90;;;;;;5050971;28;20227;-83
2021/05/02 02:29:00;;;;;;;19.67;17.50;;;7.30;99.90;;;;;;5049626;28;20197;-82
2021/05/02 02:31:33;;;;;;;23.40;19.40;;;7.10;99.90;;;;;;5044712;28;20201;-84
2021/05/02 02:34:00;;;;;;;22.80;20.45;;;7.30;99.90;;;;;;5052197;28;20243;-82
2021/05/02 02:36:27;;;;;;;22.23;19.38;;;7.30;99.90;;;;;;5052008;28;20206;-82
2021/05/02 02:38:54;;;;;;;20.55;18.05;;;7.30;99.90;;;;;;5043803;28;20205;-83
2021/05/02 02:41:22;;;;;;;22.02;19.73;;;7.20;99.90;;;;;;5049866;28;20205;-84
2021/05/02 02:43:55;;;;;;;23.20;20.65;;;7.20;99.90;;;;;;5046260;28;20258;-84
2021/05/02 02:46:23;;;;;;;27.77;20.88;;;7.20;99.90;;;;;;5052022;28;20194;-84
2021/05/02 02:48:55;;;;;;;22.15;19.80;;;7.10;99.90;;;;;;5052067;28;20214;-84
2021/05/02 02:51:24;;;;;;;25.27;20.95;;;7.10;99.90;;;;;;5050393;28;20202;-83
2021/05/02 02:53:52;;;;;;;27.98;20.30;;;7.00;99.90;;;;;;5052350;28;20234;-83
2021/05/02 02:56:21;;;;;;;21.73;19.35;;;7.00;99.90;;;;;;5051989;28;20200;-84
2021/05/02 02:58:57;;;;;;;21.45;19.15;;;7.00;99.90;;;;;;5051478;28;20261;-84
2021/05/02 03:01:24;;;;;;;24.33;21.73;;;7.00;99.90;;;;;;5035173;28;20231;-83
2021/05/02 03:03:55;;;;;;;23.38;20.88;;;7.00;99.90;;;;;;5043869;28;20232;-83
2021/05/02 03:06:26;;;;;;;24.08;20.65;;;7.00;99.90;;;;;;5038451;28;20196;-84
2021/05/02 03:08:55;;;;;;;25.70;20.98;;;7.00;99.90;;;;;;5049762;28;20188;-79
2021/05/02 03:11:22;;;;;;;23.50;20.38;;;7.00;99.90;;;;;;5056704;28;20191;-81
2021/05/02 03:13:49;;;;;;;23.70;19.83;;;7.00;99.90;;;;;;5053643;28;20243;-82
2021/05/02 03:16:20;;;;;;;31.23;23.23;;;7.00;99.90;;;;;;5053957;28;20192;-82
2021/05/02 03:18:56;;;;;;;27.08;23.27;;;6.90;99.90;;;;;;5051063;28;20205;-82
2021/05/02 03:21:31;;;;;;;23.25;20.58;;;6.90;99.90;;;;;;5050173;28;20227;-81
2021/05/02 03:24:02;;;;;;;27.23;22.77;;;6.90;99.90;;;;;;5050979;28;20242;-83
2021/05/02 03:26:30;;;;;;;26.88;22.58;;;6.90;99.90;;;;;;5048383;28;20211;-84
2021/05/02 03:29:00;;;;;;;34.13;25.60;;;6.90;99.90;;;;;;5047603;28;20205;-83
2021/05/02 03:31:29;;;;;;;27.65;23.83;;;6.80;99.90;;;;;;5046744;28;20201;-86
2021/05/02 03:34:02;;;;;;;29.88;24.33;;;6.90;99.90;;;;;;5049056;28;20225;-84
2021/05/02 03:36:34;;;;;;;31.88;25.95;;;6.80;99.90;;;;;;5047490;28;20228;-83
2021/05/02 03:39:01;;;;;;;30.00;24.70;;;6.80;99.90;;;;;;5052282;28;20239;-82
2021/05/02 03:41:32;;;;;;;31.80;25.65;;;6.70;99.90;;;;;;5055140;28;20208;-82
2021/05/02 03:43:59;;;;;;;28.80;24.98;;;6.70;99.90;;;;;;5059009;28;20293;-81
2021/05/02 03:46:26;;;;;;;30.83;26.08;;;6.70;99.90;;;;;;5057989;28;20219;-82
2021/05/02 03:48:54;;;;;;;33.45;27.52;;;6.60;99.90;;;;;;5058405;28;20219;-83
2021/05/02 03:51:23;;;;;;;33.70;26.92;;;6.50;99.90;;;;;;5059156;28;20199;-82
2021/05/02 03:53:50;;;;;;;32.13;25.85;;;6.50;99.90;;;;;;5059560;28;20276;-83
2021/05/02 03:56:34;;;;;;;32.55;27.85;;;6.50;99.90;;;;;;5059499;28;20193;-82
2021/05/02 03:59:13;;;;;;;34.15;26.75;;;6.50;99.90;;;;;;5055215;28;20197;-83
2021/05/02 04:01:43;;;;;;;35.20;28.10;;;6.50;99.90;;;;;;5051436;28;20186;-83
2021/05/02 04:04:13;;;;;;;34.35;27.20;;;6.50;99.90;;;;;;5059262;28;20232;-81
2021/05/02 04:06:41;;;;;;;28.75;24.50;;;6.60;99.90;;;;;;5056127;28;20209;-82
2021/05/02 04:09:10;;;;;;;27.45;23.90;;;6.70;99.90;;;;;;5052238;28;20202;-82
2021/05/02 04:11:37;;;;;;;34.67;26.60;;;6.80;99.90;;;;;;5053925;28;20214;-82
2021/05/02 04:14:05;;;;;;;35.58;26.98;;;6.90;99.90;;;;;;5054578;28;20318;-85
2021/05/02 04:16:31;;;;;;;30.17;25.73;;;6.90;99.90;;;;;;5042905;28;20231;-84
2021/05/02 04:18:58;;;;;;;34.65;27.40;;;6.90;99.90;;;;;;5049472;28;20665;-84
2021/05/02 04:21:25;;;;;;;30.70;26.33;;;6.90;99.90;;;;;;5050212;28;20204;-83
2021/05/02 04:23:52;;;;;;;32.22;27.30;;;6.90;99.90;;;;;;5052274;28;20224;-83
2021/05/02 04:26:19;;;;;;;33.80;26.80;;;6.90;99.90;;;;;;5048158;28;20213;-84
2021/05/02 04:28:46;;;;;;;30.13;26.58;;;6.90;99.90;;;;;;5049190;28;20204;-83
2021/05/02 04:31:13;;;;;;;33.63;25.65;;;6.90;99.90;;;;;;5051009;28;20200;-84
2021/05/02 04:33:40;;;;;;;30.52;24.88;;;7.00;99.90;;;;;;5041247;28;20291;-83
2021/05/02 04:36:07;;;;;;;33.92;25.50;;;6.90;99.90;;;;;;5042591;28;20203;-84
2021/05/02 04:38:35;;;;;;;29.80;25.20;;;7.00;99.90;;;;;;5046712;28;20192;-84
2021/05/02 04:41:02;;;;;;;30.02;25.67;;;7.10;99.90;;;;;;5049783;28;20299;-83
2021/05/02 04:43:29;;;;;;;32.58;25.15;;;7.20;99.90;;;;;;5047427;28;20241;-81
2021/05/02 04:45:55;;;;;;;27.02;22.45;;;7.30;99.90;;;;;;5043903;28;20268;-82
2021/05/02 04:48:22;;;;;;;27.75;22.08;;;7.20;99.90;;;;;;5051440;28;20177;-83
2021/05/02 04:50:49;;;;;;;28.35;22.02;;;7.50;99.90;;;;;;5052672;28;20204;-82
2021/05/02 04:53:16;;;;;;;25.17;21.98;;;7.60;99.90;;;;;;5051215;28;20252;-81
2021/05/02 04:55:42;;;;;;;31.38;23.30;;;7.80;99.90;;;;;;5050595;28;20197;-83
2021/05/02 04:58:10;;;;;;;23.95;21.35;;;7.70;99.90;;;;;;5041452;28;20198;-83
2021/05/02 05:00:37;;;;;;;25.88;23.08;;;7.70;99.90;;;;;;5045788;28;20290;-82
2021/05/02 05:03:04;;;;;;;24.35;21.67;;;7.80;99.90;;;;;;5050763;28;20235;-83
2021/05/02 05:05:31;;;;;;;27.42;23.38;;;7.80;99.90;;;;;;5046547;28;20233;-83
2021/05/02 05:07:57;;;;;;;24.33;19.25;;;7.80;99.90;;;;;;5050388;28;20203;-83
2021/05/02 05:10:24;;;;;;;22.00;19.15;;;7.90;99.90;;;;;;5051100;28;20212;-83
2021/05/02 05:12:51;;;;;;;22.40;18.25;;;8.00;99.90;;;;;;5046352;28;20245;-84
2021/05/02 05:15:18;;;;;;;27.08;20.95;;;8.00;99.90;;;;;;5043920;28;20202;-85
2021/05/02 05:17:45;;;;;;;24.48;19.77;;;8.00;99.90;;;;;;5051761;28;20199;-83
2021/05/02 05:20:12;;;;;;;23.67;19.25;;;8.10;99.90;;;;;;5052374;28;20200;-82
2021/05/02 05:22:39;;;;;;;21.10;17.02;;;8.20;99.90;;;;;;5051724;28;20355;-84
2021/05/02 05:25:07;;;;;;;29.38;19.63;;;8.40;99.90;;;;;;5046969;28;20712;-83
2021/05/02 05:27:33;;;;;;;23.30;16.95;;;8.90;99.90;;;;;;5046273;28;20226;-83
2021/05/02 05:30:00;;;;;;;20.27;18.10;;;9.50;99.90;;;;;;5039268;28;20204;-83
2021/05/02 05:32:28;;;;;;;22.10;18.70;;;10.00;99.90;;;;;;5053681;28;20229;-81
2021/05/02 05:34:55;;;;;;;21.10;17.77;;;9.90;99.90;;;;;;5057728;28;20188;-81
2021/05/02 05:37:21;;;;;;;20.92;17.42;;;9.70;99.90;;;;;;5047982;28;20244;-81
2021/05/02 05:39:48;;;;;;;23.60;18.23;;;9.50;99.90;;;;;;5049427;28;20207;-83
2021/05/02 05:42:15;;;;;;;20.55;17.77;;;9.50;99.90;;;;;;5058414;28;20251;-81
2021/05/02 05:44:42;;;;;;;17.90;16.00;;;9.40;99.90;;;;;;5069490;28;20238;-81
2021/05/02 05:47:09;;;;;;;17.98;15.88;;;10.10;99.90;;;;;;5064827;28;20256;-81
2021/05/02 05:49:38;;;;;;;18.13;14.10;;;11.10;99.90;;;;;;5054057;28;20219;-81
2021/05/02 05:52:07;;;;;;;16.52;13.93;;;12.10;99.90;;;;;;5055671;28;20205;-83
2021/05/02 05:54:33;;;;;;;14.52;12.73;;;13.00;99.90;;;;;;5054692;28;20567;-84
2021/05/02 05:57:00;;;;;;;18.60;16.60;;;13.50;99.90;;;;;;5053348;28;20741;-84
2021/05/02 05:59:26;;;;;;;14.95;13.45;;;13.70;99.90;;;;;;5051600;28;20214;-83
2021/05/02 06:01:53;;;;;;;14.77;13.20;;;13.60;99.90;;;;;;5052863;28;20194;-82
2021/05/02 06:04:20;;;;;;;15.07;13.43;;;14.20;99.90;;;;;;5047328;28;20298;-82
2021/05/02 06:06:48;;;;;;;16.15;14.50;;;15.00;99.50;;;;;;5053210;28;20206;-85
2021/05/02 06:09:14;;;;;;;15.65;14.07;;;15.80;97.30;;;;;;5056232;28;20180;-84
2021/05/02 06:11:41;;;;;;;20.23;14.30;;;16.50;95.60;;;;;;5053882;28;20252;-83
2021/05/02 06:14:08;;;;;;;17.65;15.70;;;16.60;93.70;;;;;;5054682;28;20239;-83
2021/05/02 06:16:35;;;;;;;17.83;13.05;;;16.80;93.30;;;;;;5054722;28;20205;-83
2021/05/02 06:19:02;;;;;;;14.75;12.68;;;16.70;93.60;;;;;;5050957;28;20211;-85
2021/05/02 06:21:28;;;;;;;14.85;12.50;;;17.10;93.10;;;;;;5049165;28;20221;-83
2021/05/02 06:23:56;;;;;;;14.90;12.90;;;17.50;92.30;;;;;;5054207;28;20281;-83
2021/05/02 06:26:23;;;;;;;15.43;14.05;;;17.80;91.60;;;;;;5047438;28;20480;-85
2021/05/02 06:28:51;;;;;;;13.50;12.27;;;18.00;90.70;;;;;;5050382;28;20268;-85
2021/05/02 06:31:18;;;;;;;14.47;12.43;;;18.10;90.10;;;;;;5054294;28;20446;-85
2021/05/02 06:33:45;;;;;;;15.70;14.20;;;18.20;90.00;;;;;;5052924;28;20504;-85
2021/05/02 06:36:12;;;;;;;14.60;13.10;;;17.70;90.50;;;;;;5053044;28;20447;-85
2021/05/02 06:38:39;;;;;;;17.60;15.70;;;17.70;90.50;;;;;;5046739;28;20230;-85
2021/05/02 06:41:07;;;;;;;16.25;13.75;;;17.20;91.10;;;;;;5055748;28;20202;-80
2021/05/02 06:43:34;;;;;;;16.17;14.68;;;16.70;91.70;;;;;;5046498;28;20484;-83
2021/05/02 06:46:01;;;;;;;17.73;16.00;;;16.20;92.70;;;;;;5051213;28;20202;-82
2021/05/02 06:48:27;;;;;;;18.65;15.48;;;15.50;93.90;;;;;;5049575;28;20222;-84
2021/05/02 06:50:54;;;;;;;17.00;15.30;;;15.10;95.30;;;;;;5050998;28;20192;-83
2021/05/02 06:53:21;;;;;;;19.23;16.38;;;15.80;95.10;;;;;;5053968;28;20280;-83
2021/05/02 06:55:47;;;;;;;16.60;14.90;;;15.60;93.70;;;;;;5054416;28;20207;-86
2021/05/02 06:58:15;;;;;;;20.50;16.25;;;15.20;94.80;;;;;;5049670;28;20207;-86
2021/05/02 07:00:41;;;;;;;18.35;16.05;;;14.30;95.80;;;;;;5049909;28;20188;-82
2021/05/02 07:03:08;;;;;;;16.67;14.98;;;14.70;98.10;;;;;;5050666;28;20239;-82
2021/05/02 07:05:35;;;;;;;17.35;15.50;;;15.70;95.90;;;;;;5054299;28;20297;-82
2021/05/02 07:08:02;;;;;;;14.95;13.50;;;16.70;93.90;;;;;;5052490;28;20199;-80
2021/05/02 07:10:29;;;;;;;14.40;13.00;;;17.30;91.60;;;;;;5054656;28;20207;-80
2021/05/02 07:12:56;;;;;;;14.52;13.02;;;16.70;91.80;;;;;;5055328;28;20212;-83
2021/05/02 07:15:23;;;;;;;14.60;13.10;;;15.70;93.00;;;;;;5043086;28;20237;-84
2021/05/02 07:17:51;;;;;;;16.00;13.90;;;15.30;94.10;;;;;;5049487;28;20200;-85
2021/05/02 07:20:36;;;;;;;17.45;13.50;;;14.90;94.90;;;;;;5052082;28;20212;-86
2021/05/02 07:23:42;;;;;;;15.55;13.75;;;14.40;96.30;;;;;;5051265;28;20222;-84
2021/05/02 07:26:15;;;;;;;15.20;13.35;;;14.60;96.50;;;;;;4983162;28;20363;-86
2021/05/02 07:28:41;;;;;;;17.55;14.07;;;13.80;96.70;;;;;;5050086;28;20278;-83
2021/05/02 07:31:10;;;;;;;14.52;13.02;;;13.40;98.80;;;;;;5050631;28;20203;-84
2021/05/02 07:33:55;;;;;;;13.55;12.15;;;13.10;99.40;;;;;;5050935;28;20225;-82
2021/05/02 07:36:21;;;;;;;15.13;11.13;;;13.30;99.90;;;;;;5048729;28;20298;-82
2021/05/02 07:38:48;;;;;;;11.95;9.48;;;14.10;98.80;;;;;;5041398;28;20584;-81
2021/05/02 07:41:15;;;;;;;11.13;9.25;;;15.50;96.10;;;;;;5043591;28;20208;-82
2021/05/02 07:43:41;;;;;;;11.05;9.55;;;16.30;93.40;;;;;;5048132;28;20224;-83
2021/05/02 07:46:09;;;;;;;11.63;10.07;;;16.80;91.90;;;;;;5047801;28;20205;-83
2021/05/02 07:48:36;;;;;;;10.07;9.07;;;16.40;91.40;;;;;;5046414;28;20193;-82
2021/05/02 07:51:05;;;;;;;10.90;8.13;;;16.10;92.00;;;;;;5048986;28;20247;-83
2021/05/02 07:53:32;;;;;;;10.05;9.10;;;15.80;92.50;;;;;;5041878;28;20236;-82
2021/05/02 07:55:59;;;;;;;10.13;9.13;;;16.20;92.60;;;;;;5048454;28;20208;-84
2021/05/02 07:58:28;;;;;;;11.98;8.93;;;16.00;91.70;;;;;;5035125;28;20213;-84
2021/05/02 08:00:54;;;;;;;9.05;8.15;;;15.30;92.40;;;;;;5046573;28;20216;-85
2021/05/02 08:03:22;;;;;;;9.93;8.40;;;14.80;93.70;;;;;;5045567;28;20228;-85
2021/05/02 08:05:49;;;;;;;10.40;7.95;;;14.50;94.60;;;;;;5043263;28;20228;-83
2021/05/02 08:08:16;;;;;;;9.27;7.60;;;14.40;95.10;;;;;;5048532;28;20227;-85
2021/05/02 08:10:46;;;;;;;8.48;6.78;;;14.50;95.30;;;;;;5041979;28;20204;-84
2021/05/02 08:13:17;;;;;;;6.93;6.35;;;15.70;93.70;;;;;;5047532;28;20289;-83
2021/05/02 08:15:44;;;;;;;8.20;7.40;;;16.90;91.20;;;;;;5059345;28;20202;-84
2021/05/02 08:18:12;;;;;;;10.50;8.35;;;17.10;90.30;;;;;;5050737;28;20260;-82
2021/05/02 08:20:40;;;;;;;12.40;8.35;;;16.90;89.30;;;;;;5048592;28;20212;-84
2021/05/02 08:23:07;;;;;;;8.60;7.70;;;16.20;90.50;;;;;;5039202;28;20310;-83
2021/05/02 08:25:34;;;;;;;9.65;7.53;;;15.70;90.80;;;;;;5046561;28;20224;-85
2021/05/02 08:28:00;;;;;;;7.93;7.20;;;15.10;91.70;;;;;;5042857;28;20212;-83
2021/05/02 08:30:27;;;;;;;7.82;7.03;;;14.60;93.20;;;;;;5040333;28;20637;-85
2021/05/02 08:32:54;;;;;;;7.70;7.00;;;14.20;94.40;;;;;;5047958;28;20228;-84
2021/05/02 08:35:20;;;;;;;9.18;7.10;;;13.80;96.00;;;;;;5046194;28;20211;-84
2021/05/02 08:37:49;;;;;;;8.32;7.45;;;13.80;95.90;;;;;;5048233;28;20233;-85
2021/05/02 08:40:16;;;;;;;12.18;9.30;;;13.60;96.40;;;;;;5049271;28;20213;-87
2021/05/02 08:42:43;;;;;;;9.98;8.95;;;13.00;99.50;;;;;;5049714;28;20256;-87
2021/05/02 08:45:11;;;;;;;12.95;10.73;;;12.50;99.90;;;;;;5049775;28;20289;-85
2021/05/02 08:47:37;;;;;;;10.43;9.32;;;12.00;99.90;;;;;;5046888;28;20226;-82
2021/05/02 08:50:08;;;;;;;12.23;10.57;;;11.70;99.90;;;;;;5045921;28;20204;-83
2021/05/02 08:52:35;;;;;;;12.48;11.13;;;11.40;99.90;;;;;;5045944;28;20231;-82
2021/05/02 08:55:06;;;;;;;11.95;10.75;;;11.30;99.90;;;;;;5046966;28;20200;-82
2021/05/02 08:57:33;;;;;;;10.82;9.82;;;11.30;99.90;;;;;;5044918;28;20200;-83
2021/05/02 09:00:01;;;;;;;12.90;10.88;;;11.30;99.90;;;;;;5032029;28;20287;-82
2021/05/02 09:02:28;;;;;;;12.68;10.90;;;11.30;99.90;;;;;;5045560;28;20224;-81
2021/05/02 09:04:56;;;;;;;15.75;11.57;;;11.50;99.90;;;;;;5046431;28;20283;-81
2021/05/02 09:07:23;;;;;;;14.57;10.88;;;11.70;99.90;;;;;;5049607;28;20239;-83
2021/05/02 09:09:51;;;;;;;13.32;12.00;;;12.00;99.90;;;;;;5049619;28;20303;-83
2021/05/02 09:12:26;;;;;;;12.75;10.10;;;12.30;99.90;;;;;;5049800;28;20288;-83
2021/05/02 09:14:53;;;;;;;13.80;10.13;;;12.40;99.90;;;;;;5047030;28;20267;-83
2021/05/02 09:17:28;;;;;;;8.70;7.80;;;12.50;99.90;;;;;;5047035;28;20200;-81
2021/05/02 09:19:56;;;;;;;9.60;8.35;;;12.70;99.90;;;;;;5050421;28;20272;-85
2021/05/02 09:22:24;;;;;;;8.15;7.35;;;12.80;99.90;;;;;;5051409;28;20234;-83
2021/05/02 09:25:10;;;;;;;8.60;7.75;;;12.80;99.90;;;;;;5041448;28;20286;-85
2021/05/02 09:27:48;;;;;;;14.13;9.00;;;12.80;99.90;;;;;;5054068;28;20204;-84
2021/05/02 09:30:16;;;;;;;11.57;9.82;;;13.10;99.90;;;;;;5054168;28;20257;-84
2021/05/02 09:32:45;;;;;;;14.07;9.13;;;13.10;99.90;;;;;;5055191;28;20216;-84
2021/05/02 09:35:24;;;;;;;13.73;10.90;;;13.10;99.90;;;;;;5055801;28;20210;-83
2021/05/02 09:38:56;;;;;;;14.90;11.35;;;13.30;99.90;;;;;;5046043;28;20274;-85
2021/05/02 09:42:12;;;;;;;12.70;9.68;;;13.60;99.90;;;;;;4963971;28;20217;-82
2021/05/02 09:45:11;;;;;;;15.10;9.82;;;13.50;99.90;;;;;;4966433;28;20225;-85
2021/05/02 09:47:42;;;;;;;18.80;10.18;;;13.70;99.90;;;;;;5036554;28;20219;-83
2021/05/02 09:50:17;;;;;;;11.95;9.40;;;13.70;98.60;;;;;;5047474;28;20286;-83
2021/05/02 09:52:47;;;;;;;10.00;8.20;;;13.70;98.70;;;;;;5053282;28;20265;-83
2021/05/02 09:55:28;;;;;;;11.57;7.40;;;13.40;99.00;;;;;;5056764;28;20198;-83
2021/05/02 09:57:56;;;;;;;12.35;7.13;;;13.40;99.50;;;;;;5050501;28;20210;-84
2021/05/02 10:00:32;;;;;;;6.95;6.25;;;13.50;99.00;;;;;;5046550;28;20717;-84
2021/05/02 10:03:07;;;;;;;7.25;6.13;;;13.50;99.60;;;;;;5041153;28;20262;-84
2021/05/02 10:05:54;;;;;;;7.75;6.18;;;12.90;99.90;;;;;;5044871;28;20225;-85
2021/05/02 10:08:22;;;;;;;9.55;6.35;;;12.60;99.50;;;;;;5051142;28;20200;-81
2021/05/02 10:10:48;;;;;;;9.20;6.57;;;12.30;98.10;;;;;;5055566;28;20305;-80
2021/05/02 10:13:15;;;;;;;8.35;7.30;;;11.70;99.20;;;;;;5045182;28;20229;-82
2021/05/02 10:15:46;;;;;;;9.55;7.72;;;11.50;99.90;;;;;;5049606;28;20187;-80
2021/05/02 10:18:13;;;;;;;10.20;6.93;;;11.40;99.90;;;;;;5055831;28;20215;-81
2021/05/02 10:20:43;;;;;;;7.88;7.07;;;11.20;99.90;;;;;;5052830;28;20212;-84
2021/05/02 10:23:12;;;;;;;19.02;11.18;;;11.10;99.90;;;;;;5051672;22;20228;-69
2021/05/02 10:25:38;;;;;;;11.02;9.30;;;10.90;99.90;;;;;;5030971;28;20258;-69
2021/05/02 10:28:06;;;;;;;15.13;10.88;;;10.90;99.90;;;;;;5030309;28;20215;-71
2021/05/02 10:30:39;;;;;;;9.63;8.57;;;10.90;99.90;;;;;;5024283;28;20210;-67
2021/05/02 10:33:09;;;;;;;13.05;8.90;;;11.10;99.90;;;;;;5030241;28;20226;-67
2021/05/02 10:35:46;;;;;;;10.07;8.43;;;11.20;99.90;;;;;;5031585;28;20454;-69
2021/05/02 10:38:15;;;;;;;8.55;7.68;;;11.30;99.90;;;;;;5031279;28;20208;-69
2021/05/02 10:40:42;;;;;;;9.02;6.38;;;11.30;99.90;;;;;;5030367;28;20663;-69
2021/05/02 10:43:11;;;;;;;8.23;6.22;;;11.60;99.90;;;;;;5032298;28;20583;-67
2021/05/02 10:45:44;;;;;;;12.13;7.13;;;11.90;99.90;;;;;;5032380;28;20255;-67
2021/05/02 10:48:36;;;;;;;13.77;8.73;;;12.10;99.90;;;;;;5025037;28;20216;-68
2021/05/02 10:51:04;;;;;;;7.43;6.25;;;12.50;99.90;;;;;;5030580;28;20209;-67
2021/05/02 10:53:31;;;;;;;9.38;6.82;;;12.80;99.90;;;;;;5028652;28;20218;-67
2021/05/02 10:56:01;;;;;;;8.15;7.35;;;12.90;99.90;;;;;;5032053;28;20216;-68
2021/05/02 10:58:29;;;;;;;6.93;6.22;;;13.20;99.90;;;;;;5031707;28;20205;-68
2021/05/02 11:00:59;;;;;;;9.32;5.95;;;13.50;99.90;;;;;;5028618;28;20691;-68
2021/05/02 11:03:53;;;;;;;6.10;4.97;;;13.80;99.40;;;;;;5027799;28;20698;-67
2021/05/02 11:07:00;;;;;;;6.90;5.00;;;14.30;97.50;;;;;;5029645;28;20629;-70
2021/05/02 11:09:29;;;;;;;5.68;4.70;;;14.70;96.20;;;;;;5031380;28;20211;-69
2021/05/02 11:11:58;;;;;;;6.10;5.40;;;14.60;95.00;;;;;;5028911;28;20200;-70
2021/05/02 11:14:36;;;;;;;6.28;5.18;;;14.90;95.20;;;;;;5032445;28;20341;-69
2021/05/02 11:17:28;;;;;;;8.13;5.55;;;15.10;94.30;;;;;;5029801;28;20224;-69
2021/05/02 11:19:58;;;;;;;6.80;5.50;;;14.70;94.10;;;;;;5023553;28;20201;-68
2021/05/02 11:22:26;;;;;;;6.63;5.20;;;14.70;94.80;;;;;;5031500;28;20283;-70
2021/05/02 11:25:13;;;;;;;8.43;5.15;;;14.70;95.00;;;;;;5028805;28;20588;-67
2021/05/02 11:30:33;;;;;;;8.07;4.25;;;13.90;94.70;;;;;;5032321;28;20645;-68
2021/05/02 11:33:00;;;;;;;10.57;5.57;;;13.60;96.70;;;;;;5027245;28;20205;-69
2021/05/02 11:35:54;;;;;;;7.03;5.35;;;13.30;99.90;;;;;;5032219;28;20220;-69
2021/05/02 11:38:37;;;;;;;6.00;4.53;;;12.90;99.90;;;;;;5031681;28;20542;-67
2021/05/02 11:41:08;;;;;;;5.78;4.53;;;12.70;99.90;;;;;;5029629;28;20300;-67
2021/05/02 11:43:36;;;;;;;6.43;4.65;;;12.60;99.90;;;;;;5028623;28;20570;-68
2021/05/02 11:46:04;;;;;;;5.60;4.90;;;12.80;99.90;;;;;;5031640;28;20754;-69
2021/05/02 11:48:33;;;;;;;5.75;4.57;;;12.90;99.90;;;;;;5031563;28;20210;-69
2021/05/02 11:51:02;;;;;;;7.70;5.40;;;12.90;99.90;;;;;;5032181;28;20212;-69
2021/05/02 11:53:38;;;;;;;7.75;5.40;;;13.10;99.90;;;;;;5031097;28;20213;-72
2021/05/02 11:56:21;;;;;;;7.50;4.88;;;13.20;99.90;;;;;;5028426;28;20236;-67
2021/05/02 11:58:49;;;;;;;8.27;5.13;;;13.20;99.90;;;;;;5017886;28;20801;-70
2021/05/02 12:01:20;;;;;;;7.95;4.55;;;13.20;99.90;;;;;;5027646;28;20222;-70
2021/05/02 12:03:47;;;;;;;4.40;4.00;;;13.20;99.90;;;;;;5032249;28;20202;-72
2021/05/02 12:06:26;;;;;;;5.80;4.32;;;13.30;99.90;;;;;;5035388;28;20254;-70
2021/05/02 12:08:52;;;;;;;4.85;4.35;;;13.30;99.90;;;;;;5034406;28;20196;-70
2021/05/02 12:11:20;;;;;;;6.30;4.72;;;13.20;99.90;;;;;;5028876;28;20791;-69
2021/05/02 12:13:50;;;;;;;4.28;3.78;;;13.40;99.60;;;;;;5034066;28;20206;-69
2021/05/02 12:16:20;;;;;;;6.85;3.67;;;13.30;97.30;;;;;;5031843;28;20701;-70
2021/05/02 12:18:55;;;;;;;5.32;3.80;;;13.20;97.10;;;;;;5028952;28;20215;-67
2021/05/02 12:21:26;;;;;;;3.97;3.20;;;13.50;97.20;;;;;;5016681;28;20218;-69
2021/05/02 12:23:55;;;;;;;5.63;3.60;;;13.70;96.70;;;;;;5034546;28;20214;-69
2021/05/02 12:26:22;;;;;;;4.60;3.15;;;13.70;96.10;;;;;;5026060;28;20233;-68
2021/05/02 12:28:50;;;;;;;4.35;3.30;;;13.60;96.00;;;;;;5033527;28;20207;-69
2021/05/02 12:31:17;;;;;;;9.07;2.95;;;13.30;98.70;;;;;;5031177;28;20557;-71
2021/05/02 12:33:44;;;;;;;4.68;3.78;;;12.80;99.90;;;;;;5034774;28;20235;-68
2021/05/02 12:36:13;;;;;;;3.78;2.55;;;12.40;99.90;;;;;;5033926;28;20629;-69
2021/05/02 12:38:41;;;;;;;5.82;2.95;;;12.30;99.90;;;;;;5033160;28;20228;-67
2021/05/02 12:41:18;;;;;;;7.15;3.28;;;11.60;99.90;;;;;;5032411;28;20303;-69
2021/05/02 12:43:50;;;;;;;3.92;3.55;;;11.10;99.90;;;;;;5020485;28;20206;-69
2021/05/02 12:46:37;;;;;;;4.05;2.22;;;11.00;99.90;;;;;;5029702;28;20583;-69
2021/05/02 12:49:29;;;;;;;3.65;2.72;;;11.10;99.90;;;;;;5027100;28;20261;-67
2021/05/02 12:51:56;;;;;;;5.80;2.53;;;11.10;99.90;;;;;;5030877;28;20733;-69
2021/05/02 12:54:27;;;;;;;3.78;2.50;;;11.10;99.90;;;;;;5034668;28;20196;-69
2021/05/02 12:57:06;;;;;;;15.73;3.00;;;11.30;99.90;;;;;;5033236;28;20243;-69